Accueil
METAR-TAF:

METAR-TAF

Aéroports :

Aéroport domestique de Sharurah

Sharurah, Arabie saoudite

latitude: 17-28N, longitude: 047-07E, altitude: 720 m

Observation

Le bulletin a été fait il y a 35 minutes, à 07:00 UTC
Vent 9 kt de est
Température 21°C
Humidité 18%
Pression 1020 hPa
Visibilité 10 km ou plus
pas de nuages en-dessous de 1500 mètres et pas de cumulonimbus.

METAR: OESH 240700Z 09009KT CAVOK 21/M04 Q1020 NOSIG

Heure: 10:35 (07:35 UTC)

Prévision

Le bulletin a été fait il y a 8 heures et 35 minutes, à 23:00 UTC
Prévision valable du 24 à 00 UTC au 25 à 06 UTC
Vent 3 kt de direction variable
Visibilité: 7000 m
Evoluant progressivement
du 24 à 06 UTC au 24 à 08 UTC
Vent 6 kt de sud-est
Evoluant progressivement
du 24 à 14 UTC au 24 à 16 UTC
Vent 10 kt de est/nord-est

TAF: OESH 232300Z 2400/2506 VRB03KT 7000 NSC BECMG 2406/2408 14006KT BECMG 2414/2416 07010KT

Observations et prévisions météorologiques de plus de 4000 aéroports (messages METAR et TAF).

Les stations disponibles sont représentées par des disques jaunes et rouges sur la carte.

Passer la souris dessus pour voir le nom de la station.

Cliquer dessus pour voir les observations et prévisions météorologiques.

Pour changer de carte: cliquez sur les boutons verts avec une croix noire pour zoomer, sur le bouton vert avec un tiret pour effectuer un zoom arrière, ou sur les flèches vertes pour les cartes adjacentes.


METAR-TAF: